sensor_id;sensor_type;location;lat;lon;timestamp;pressure;altitude;pressure_sealevel;temperature;humidity
44044;BME280;29709;52.396;16.796;2023-05-03T00:01:00;102624.02;;;11.29;62.44
44044;BME280;29709;52.396;16.796;2023-05-03T00:04:17;102628.41;;;11.20;61.73
44044;BME280;29709;52.396;16.796;2023-05-03T00:07:30;102625.91;;;11.17;62.65
44044;BME280;29709;52.396;16.796;2023-05-03T00:10:43;102628.80;;;11.16;62.70
44044;BME280;29709;52.396;16.796;2023-05-03T00:13:57;102637.16;;;11.14;62.67
44044;BME280;29709;52.396;16.796;2023-05-03T00:17:11;102641.04;;;11.12;62.34
44044;BME280;29709;52.396;16.796;2023-05-03T00:20:25;102639.56;;;11.08;61.69
44044;BME280;29709;52.396;16.796;2023-05-03T00:23:39;102629.31;;;10.98;62.20
44044;BME280;29709;52.396;16.796;2023-05-03T00:26:52;102637.45;;;10.89;62.15
44044;BME280;29709;52.396;16.796;2023-05-03T00:30:06;102633.44;;;10.82;62.46
44044;BME280;29709;52.396;16.796;2023-05-03T00:33:20;102628.34;;;10.77;63.34
44044;BME280;29709;52.396;16.796;2023-05-03T00:36:33;102629.34;;;10.76;62.93
44044;BME280;29709;52.396;16.796;2023-05-03T00:39:46;102624.05;;;10.73;63.10
44044;BME280;29709;52.396;16.796;2023-05-03T00:43:01;102630.42;;;10.62;62.71
44044;BME280;29709;52.396;16.796;2023-05-03T00:46:15;102619.69;;;10.59;61.67
44044;BME280;29709;52.396;16.796;2023-05-03T00:49:28;102620.55;;;10.49;63.10
44044;BME280;29709;52.396;16.796;2023-05-03T00:52:41;102630.66;;;10.37;63.04
44044;BME280;29709;52.396;16.796;2023-05-03T00:55:55;102621.27;;;10.28;61.51
44044;BME280;29709;52.396;16.796;2023-05-03T00:59:11;102626.72;;;10.17;63.23
44044;BME280;29709;52.396;16.796;2023-05-03T01:02:25;102624.40;;;10.00;63.65
44044;BME280;29709;52.396;16.796;2023-05-03T01:12:39;102632.98;;;9.84;62.45
44044;BME280;29709;52.396;16.796;2023-05-03T01:15:58;102634.94;;;9.71;63.27
44044;BME280;29709;52.396;16.796;2023-05-03T01:29:25;102654.99;;;9.23;63.20
44044;BME280;29709;52.396;16.796;2023-05-03T01:42:55;102660.84;;;9.06;62.59
44044;BME280;29709;52.396;16.796;2023-05-03T01:46:09;102665.69;;;9.03;63.93
44044;BME280;29709;52.396;16.796;2023-05-03T01:49:23;102653.09;;;9.00;63.18
44044;BME280;29709;52.396;16.796;2023-05-03T01:52:36;102660.31;;;9.01;64.11
44044;BME280;29709;52.396;16.796;2023-05-03T01:55:49;102666.92;;;8.99;63.68
44044;BME280;29709;52.396;16.796;2023-05-03T01:59:03;102662.62;;;8.94;64.16
44044;BME280;29709;52.396;16.796;2023-05-03T02:02:16;102658.61;;;8.87;63.53
44044;BME280;29709;52.396;16.796;2023-05-03T02:05:29;102664.20;;;8.86;64.37
44044;BME280;29709;52.396;16.796;2023-05-03T02:08:42;102666.03;;;8.85;63.32
44044;BME280;29709;52.396;16.796;2023-05-03T02:11:55;102661.89;;;8.80;65.04
44044;BME280;29709;52.396;16.796;2023-05-03T02:15:09;102658.38;;;8.78;64.49
44044;BME280;29709;52.396;16.796;2023-05-03T02:18:24;102655.84;;;8.75;64.91
44044;BME280;29709;52.396;16.796;2023-05-03T02:21:42;102657.72;;;8.74;64.85
44044;BME280;29709;52.396;16.796;2023-05-03T02:24:56;102657.72;;;8.74;63.88
44044;BME280;29709;52.396;16.796;2023-05-03T02:28:10;102664.52;;;8.68;65.76
44044;BME280;29709;52.396;16.796;2023-05-03T02:31:23;102657.95;;;8.71;66.58
44044;BME280;29709;52.396;16.796;2023-05-03T02:34:37;102665.86;;;8.76;66.28
44044;BME280;29709;52.396;16.796;2023-05-03T02:37:50;102659.27;;;8.78;66.45
44044;BME280;29709;52.396;16.796;2023-05-03T02:41:04;102657.51;;;8.77;67.08
44044;BME280;29709;52.396;16.796;2023-05-03T02:44:17;102653.78;;;8.78;67.34
44044;BME280;29709;52.396;16.796;2023-05-03T02:47:30;102660.37;;;8.76;66.54
44044;BME280;29709;52.396;16.796;2023-05-03T02:50:43;102662.33;;;8.74;66.08
44044;BME280;29709;52.396;16.796;2023-05-03T02:53:56;102667.95;;;8.59;65.74
44044;BME280;29709;52.396;16.796;2023-05-03T02:57:10;102670.79;;;8.58;65.47
44044;BME280;29709;52.396;16.796;2023-05-03T03:00:24;102671.90;;;8.55;66.05
44044;BME280;29709;52.396;16.796;2023-05-03T03:03:37;102684.27;;;8.61;67.14
44044;BME280;29709;52.396;16.796;2023-05-03T03:06:50;102680.65;;;8.60;67.47
44044;BME280;29709;52.396;16.796;2023-05-03T03:10:06;102676.50;;;8.55;68.10
44044;BME280;29709;52.396;16.796;2023-05-03T03:13:20;102674.74;;;8.66;68.59
44044;BME280;29709;52.396;16.796;2023-05-03T03:16:33;102673.73;;;8.80;69.05
44044;BME280;29709;52.396;16.796;2023-05-03T03:19:46;102676.80;;;8.88;64.93
44044;BME280;29709;52.396;16.796;2023-05-03T03:22:59;102678.78;;;8.86;68.07
44044;BME280;29709;52.396;16.796;2023-05-03T03:26:12;102689.76;;;8.86;65.79
44044;BME280;29709;52.396;16.796;2023-05-03T03:29:25;102689.41;;;8.91;68.20
44044;BME280;29709;52.396;16.796;2023-05-03T03:32:39;102688.65;;;8.89;67.60
44044;BME280;29709;52.396;16.796;2023-05-03T03:35:53;102687.30;;;8.94;67.32
44044;BME280;29709;52.396;16.796;2023-05-03T03:39:06;102681.62;;;8.98;67.12
44044;BME280;29709;52.396;16.796;2023-05-03T03:42:19;102694.34;;;8.99;67.36
44044;BME280;29709;52.396;16.796;2023-05-03T03:45:35;102694.74;;;9.05;67.57
44044;BME280;29709;52.396;16.796;2023-05-03T03:48:48;102692.56;;;9.10;67.38
44044;BME280;29709;52.396;16.796;2023-05-03T03:52:02;102690.45;;;9.14;67.53
44044;BME280;29709;52.396;16.796;2023-05-03T03:55:15;102700.99;;;9.20;67.48
44044;BME280;29709;52.396;16.796;2023-05-03T03:58:28;102707.75;;;9.27;66.90
44044;BME280;29709;52.396;16.796;2023-05-03T04:01:41;102705.02;;;9.27;67.95
44044;BME280;29709;52.396;16.796;2023-05-03T04:04:54;102721.16;;;9.32;68.27
44044;BME280;29709;52.396;16.796;2023-05-03T04:08:07;102711.48;;;9.39;67.57
44044;BME280;29709;52.396;16.796;2023-05-03T04:11:21;102714.98;;;9.41;66.81
44044;BME280;29709;52.396;16.796;2023-05-03T04:14:35;102718.48;;;9.43;67.79
44044;BME280;29709;52.396;16.796;2023-05-03T04:17:48;102729.54;;;9.54;66.61
44044;BME280;29709;52.396;16.796;2023-05-03T04:21:01;102736.45;;;9.60;67.54
44044;BME280;29709;52.396;16.796;2023-05-03T04:24:14;102738.09;;;9.62;67.20
44044;BME280;29709;52.396;16.796;2023-05-03T04:27:29;102740.48;;;9.67;67.05
44044;BME280;29709;52.396;16.796;2023-05-03T04:30:42;102744.52;;;9.74;67.08
44044;BME280;29709;52.396;16.796;2023-05-03T04:33:58;102749.59;;;9.67;66.39
44044;BME280;29709;52.396;16.796;2023-05-03T04:37:11;102758.50;;;9.71;67.61
44044;BME280;29709;52.396;16.796;2023-05-03T04:40:25;102753.00;;;9.71;67.85
44044;BME280;29709;52.396;16.796;2023-05-03T04:43:39;102757.01;;;9.78;65.82
44044;BME280;29709;52.396;16.796;2023-05-03T04:46:52;102757.01;;;9.78;67.40
44044;BME280;29709;52.396;16.796;2023-05-03T04:50:07;102765.69;;;9.84;67.28
44044;BME280;29709;52.396;16.796;2023-05-03T04:53:22;102763.38;;;9.78;67.57
44044;BME280;29709;52.396;16.796;2023-05-03T04:56:35;102763.80;;;9.85;67.49
44044;BME280;29709;52.396;16.796;2023-05-03T04:59:49;102773.35;;;9.92;68.19
44044;BME280;29709;52.396;16.796;2023-05-03T05:03:02;102772.66;;;10.01;67.37
44044;BME280;29709;52.396;16.796;2023-05-03T05:06:15;102772.29;;;10.06;65.69
44044;BME280;29709;52.396;16.796;2023-05-03T05:09:28;102780.41;;;10.07;66.49
44044;BME280;29709;52.396;16.796;2023-05-03T05:12:44;102780.90;;;10.01;66.65
44044;BME280;29709;52.396;16.796;2023-05-03T05:15:57;102788.35;;;9.99;67.28
44044;BME280;29709;52.396;16.796;2023-05-03T05:19:11;102795.27;;;10.05;67.05
44044;BME280;29709;52.396;16.796;2023-05-03T05:22:25;102796.02;;;10.07;66.34
44044;BME280;29709;52.396;16.796;2023-05-03T05:25:38;102803.56;;;10.16;66.48
44044;BME280;29709;52.396;16.796;2023-05-03T05:28:51;102809.57;;;10.21;65.85
44044;BME280;29709;52.396;16.796;2023-05-03T05:32:04;102805.41;;;10.28;65.09
44044;BME280;29709;52.396;16.796;2023-05-03T05:35:17;102803.84;;;10.37;65.17
44044;BME280;29709;52.396;16.796;2023-05-03T05:38:31;102805.70;;;10.36;64.75
44044;BME280;29709;52.396;16.796;2023-05-03T05:41:44;102804.12;;;10.45;64.76
44044;BME280;29709;52.396;16.796;2023-05-03T05:44:57;102799.41;;;10.58;65.06
44044;BME280;29709;52.396;16.796;2023-05-03T05:48:10;102818.82;;;10.68;64.11
44044;BME280;29709;52.396;16.796;2023-05-03T05:51:23;102819.69;;;10.68;63.91
44044;BME280;29709;52.396;16.796;2023-05-03T05:54:36;102818.51;;;10.84;63.25
44044;BME280;29709;52.396;16.796;2023-05-03T05:57:49;102813.41;;;11.02;62.87
44044;BME280;29709;52.396;16.796;2023-05-03T06:01:03;102822.67;;;11.12;62.71
44044;BME280;29709;52.396;16.796;2023-05-03T06:04:17;102835.23;;;11.27;61.43
44044;BME280;29709;52.396;16.796;2023-05-03T06:07:30;102825.09;;;11.39;60.98
44044;BME280;29709;52.396;16.796;2023-05-03T06:10:43;102820.73;;;11.47;60.18
44044;BME280;29709;52.396;16.796;2023-05-03T06:13:56;102823.20;;;11.73;59.32
44044;BME280;29709;52.396;16.796;2023-05-03T06:17:10;102834.35;;;11.94;58.44
44044;BME280;29709;52.396;16.796;2023-05-03T06:20:23;102836.81;;;12.08;58.54
44044;BME280;29709;52.396;16.796;2023-05-03T06:23:36;102835.55;;;12.23;58.73
44044;BME280;29709;52.396;16.796;2023-05-03T06:26:52;102829.26;;;12.32;57.64
44044;BME280;29709;52.396;16.796;2023-05-03T06:30:06;102840.80;;;12.26;54.74
44044;BME280;29709;52.396;16.796;2023-05-03T06:33:19;102840.15;;;12.34;55.02
44044;BME280;29709;52.396;16.796;2023-05-03T06:36:33;102842.54;;;12.59;54.65
44044;BME280;29709;52.396;16.796;2023-05-03T06:39:47;102836.90;;;12.93;55.64
44044;BME280;29709;52.396;16.796;2023-05-03T06:43:02;102844.74;;;13.18;54.41
44044;BME280;29709;52.396;16.796;2023-05-03T06:46:15;102847.52;;;13.39;54.18
44044;BME280;29709;52.396;16.796;2023-05-03T06:49:29;102842.48;;;13.44;53.00
44044;BME280;29709;52.396;16.796;2023-05-03T06:52:42;102839.23;;;13.39;52.18
44044;BME280;29709;52.396;16.796;2023-05-03T06:55:55;102845.05;;;13.36;52.35
44044;BME280;29709;52.396;16.796;2023-05-03T06:59:09;102840.02;;;13.51;51.40
44044;BME280;29709;52.396;16.796;2023-05-03T07:02:22;102847.87;;;13.76;52.20
44044;BME280;29709;52.396;16.796;2023-05-03T07:05:35;102836.05;;;14.24;50.14
44044;BME280;29709;52.396;16.796;2023-05-03T07:08:52;102836.12;;;14.53;52.01
44044;BME280;29709;52.396;16.796;2023-05-03T07:12:05;102843.55;;;14.72;51.57
44044;BME280;29709;52.396;16.796;2023-05-03T07:15:19;102838.12;;;14.90;50.41
44044;BME280;29709;52.396;16.796;2023-05-03T07:18:32;102842.64;;;15.00;49.02
44044;BME280;29709;52.396;16.796;2023-05-03T07:21:45;102834.44;;;15.28;48.00
44044;BME280;29709;52.396;16.796;2023-05-03T07:24:58;102843.73;;;15.37;45.68
44044;BME280;29709;52.396;16.796;2023-05-03T07:28:11;102839.43;;;15.15;44.68
44044;BME280;29709;52.396;16.796;2023-05-03T07:31:25;102843.23;;;15.14;44.37
44044;BME280;29709;52.396;16.796;2023-05-03T07:34:38;102840.78;;;14.82;43.86
44044;BME280;29709;52.396;16.796;2023-05-03T07:37:51;102844.27;;;14.84;44.64
44044;BME280;29709;52.396;16.796;2023-05-03T07:41:04;102842.23;;;14.86;44.37
44044;BME280;29709;52.396;16.796;2023-05-03T07:44:18;102848.63;;;14.86;44.23
44044;BME280;29709;52.396;16.796;2023-05-03T07:47:32;102844.73;;;14.60;43.92
44044;BME280;29709;52.396;16.796;2023-05-03T07:50:50;102846.02;;;14.75;43.56
44044;BME280;29709;52.396;16.796;2023-05-03T07:54:04;102848.14;;;15.20;43.65
44044;BME280;29709;52.396;16.796;2023-05-03T07:57:18;102847.36;;;15.47;40.23
44044;BME280;29709;52.396;16.796;2023-05-03T08:00:32;102842.31;;;15.33;40.48
44044;BME280;29709;52.396;16.796;2023-05-03T08:03:45;102838.95;;;15.29;39.78
44044;BME280;29709;52.396;16.796;2023-05-03T08:07:02;102837.74;;;15.41;38.98
44044;BME280;29709;52.396;16.796;2023-05-03T08:10:15;102844.44;;;15.48;36.92
44044;BME280;29709;52.396;16.796;2023-05-03T08:13:29;102845.77;;;15.44;36.75
44044;BME280;29709;52.396;16.796;2023-05-03T08:16:42;102842.41;;;15.41;37.97
44044;BME280;29709;52.396;16.796;2023-05-03T08:19:55;102837.35;;;15.73;37.47
44044;BME280;29709;52.396;16.796;2023-05-03T08:23:08;102839.28;;;16.00;38.51
44044;BME280;29709;52.396;16.796;2023-05-03T08:26:57;102841.23;;;16.18;38.57
44044;BME280;29709;52.396;16.796;2023-05-03T08:30:10;102835.40;;;16.38;38.14
44044;BME280;29709;52.396;16.796;2023-05-03T08:33:24;102835.38;;;16.56;37.92
44044;BME280;29709;52.396;16.796;2023-05-03T08:36:37;102832.77;;;16.55;35.71
44044;BME280;29709;52.396;16.796;2023-05-03T08:39:51;102840.93;;;16.56;35.70
44044;BME280;29709;52.396;16.796;2023-05-03T08:43:08;102839.73;;;16.68;38.34
44044;BME280;29709;52.396;16.796;2023-05-03T08:46:22;102843.40;;;16.41;35.84
44044;BME280;29709;52.396;16.796;2023-05-03T08:49:38;102848.68;;;16.17;36.76
44044;BME280;29709;52.396;16.796;2023-05-03T08:52:54;102840.53;;;16.33;36.89
44044;BME280;29709;52.396;16.796;2023-05-03T08:56:09;102844.97;;;16.26;36.60
44044;BME280;29709;52.396;16.796;2023-05-03T08:59:22;102850.72;;;16.15;36.99
44044;BME280;29709;52.396;16.796;2023-05-03T09:02:37;102851.74;;;16.14;37.57
44044;BME280;29709;52.396;16.796;2023-05-03T09:05:51;102846.59;;;16.47;38.67
44044;BME280;29709;52.396;16.796;2023-05-03T09:09:06;102847.48;;;16.83;37.49
44044;BME280;29709;52.396;16.796;2023-05-03T09:15:52;102846.36;;;16.93;36.49
44044;BME280;29709;52.396;16.796;2023-05-03T09:19:07;102842.43;;;17.22;37.45
44044;BME280;29709;52.396;16.796;2023-05-03T09:22:30;102847.45;;;17.44;37.03
44044;BME280;29709;52.396;16.796;2023-05-03T09:25:50;102844.44;;;17.64;36.41
44044;BME280;29709;52.396;16.796;2023-05-03T09:29:03;102840.84;;;17.45;37.56
44044;BME280;29709;52.396;16.796;2023-05-03T09:32:17;102834.40;;;17.19;36.27
44044;BME280;29709;52.396;16.796;2023-05-03T09:35:31;102840.27;;;16.90;35.72
44044;BME280;29709;52.396;16.796;2023-05-03T09:38:44;102835.16;;;17.03;35.49
44044;BME280;29709;52.396;16.796;2023-05-03T09:41:57;102836.37;;;17.00;36.08
44044;BME280;29709;52.396;16.796;2023-05-03T09:45:22;102830.03;;;16.90;36.65
44044;BME280;29709;52.396;16.796;2023-05-03T09:48:36;102835.61;;;17.16;35.91
44044;BME280;29709;52.396;16.796;2023-05-03T09:51:50;102838.17;;;17.36;35.30
44044;BME280;29709;52.396;16.796;2023-05-03T09:55:03;102837.13;;;17.63;36.03
44044;BME280;29709;52.396;16.796;2023-05-03T09:58:17;102842.59;;;17.46;35.32
44044;BME280;29709;52.396;16.796;2023-05-03T10:01:30;102834.95;;;17.48;35.04
44044;BME280;29709;52.396;16.796;2023-05-03T10:04:49;102839.28;;;17.43;33.84
44044;BME280;29709;52.396;16.796;2023-05-03T10:08:06;102834.18;;;17.38;34.33
44044;BME280;29709;52.396;16.796;2023-05-03T10:11:23;102832.35;;;17.21;33.79
44044;BME280;29709;52.396;16.796;2023-05-03T10:14:40;102826.23;;;17.17;34.90
44044;BME280;29709;52.396;16.796;2023-05-03T10:18:00;102829.34;;;17.40;34.48
44044;BME280;29709;52.396;16.796;2023-05-03T10:28:08;102823.72;;;17.84;33.98
44044;BME280;29709;52.396;16.796;2023-05-03T10:34:46;102827.32;;;18.18;33.99
44044;BME280;29709;52.396;16.796;2023-05-03T10:41:24;102825.98;;;17.88;33.25
44044;BME280;29709;52.396;16.796;2023-05-03T10:44:40;102808.88;;;18.17;34.39
44044;BME280;29709;52.396;16.796;2023-05-03T10:51:31;102814.80;;;18.14;33.94
44044;BME280;29709;52.396;16.796;2023-05-03T10:54:50;102828.45;;;17.40;36.21
44044;BME280;29709;52.396;16.796;2023-05-03T10:58:09;102815.45;;;17.14;36.03
44044;BME280;29709;52.396;16.796;2023-05-03T11:01:26;102817.42;;;17.22;37.47
44044;BME280;29709;52.396;16.796;2023-05-03T11:04:43;102826.13;;;17.01;35.86
44044;BME280;29709;52.396;16.796;2023-05-03T11:08:08;102818.77;;;17.18;38.02
44044;BME280;29709;52.396;16.796;2023-05-03T11:11:22;102823.37;;;17.61;36.88
44044;BME280;29709;52.396;16.796;2023-05-03T11:14:35;102817.28;;;17.83;36.84
44044;BME280;29709;52.396;16.796;2023-05-03T11:17:49;102824.91;;;17.81;36.18
44044;BME280;29709;52.396;16.796;2023-05-03T11:21:03;102817.16;;;18.01;34.66
44044;BME280;29709;52.396;16.796;2023-05-03T11:24:16;102814.47;;;18.26;35.69
44044;BME280;29709;52.396;16.796;2023-05-03T11:27:29;102818.68;;;18.38;32.65
44044;BME280;29709;52.396;16.796;2023-05-03T11:30:45;102819.91;;;18.52;35.23
44044;BME280;29709;52.396;16.796;2023-05-03T11:33:59;102808.91;;;18.26;33.55
44044;BME280;29709;52.396;16.796;2023-05-03T11:37:12;102828.84;;;18.13;34.50
44044;BME280;29709;52.396;16.796;2023-05-03T11:40:25;102819.32;;;17.73;33.50
44044;BME280;29709;52.396;16.796;2023-05-03T11:43:43;102820.46;;;17.63;34.10
44044;BME280;29709;52.396;16.796;2023-05-03T11:46:57;102822.09;;;17.47;33.88
44044;BME280;29709;52.396;16.796;2023-05-03T11:50:11;102822.78;;;16.97;33.45
44044;BME280;29709;52.396;16.796;2023-05-03T11:53:25;102822.80;;;17.23;34.65
44044;BME280;29709;52.396;16.796;2023-05-03T11:56:38;102822.36;;;17.62;34.66
44044;BME280;29709;52.396;16.796;2023-05-03T11:59:51;102824.41;;;17.86;34.24
44044;BME280;29709;52.396;16.796;2023-05-03T12:03:05;102823.72;;;17.84;34.29
44044;BME280;29709;52.396;16.796;2023-05-03T12:06:22;102821.59;;;17.78;31.97
44044;BME280;29709;52.396;16.796;2023-05-03T12:09:36;102818.88;;;17.34;32.97
44044;BME280;29709;52.396;16.796;2023-05-03T12:12:56;102822.39;;;17.10;33.66
44044;BME280;29709;52.396;16.796;2023-05-03T12:16:11;102821.24;;;17.21;35.73
44044;BME280;29709;52.396;16.796;2023-05-03T12:19:30;102823.41;;;17.35;34.55
44044;BME280;29709;52.396;16.796;2023-05-03T12:22:47;102815.67;;;17.21;34.03
44044;BME280;29709;52.396;16.796;2023-05-03T12:26:02;102816.14;;;16.90;34.19
44044;BME280;29709;52.396;16.796;2023-05-03T12:29:15;102809.09;;;16.78;34.25
44044;BME280;29709;52.396;16.796;2023-05-03T12:32:28;102807.47;;;16.93;35.33
44044;BME280;29709;52.396;16.796;2023-05-03T12:35:42;102818.62;;;17.45;34.76
44044;BME280;29709;52.396;16.796;2023-05-03T12:38:55;102805.68;;;17.62;34.43
44044;BME280;29709;52.396;16.796;2023-05-03T12:42:08;102810.05;;;17.39;34.77
44044;BME280;29709;52.396;16.796;2023-05-03T12:45:21;102802.26;;;17.16;33.13
44044;BME280;29709;52.396;16.796;2023-05-03T12:48:34;102809.25;;;17.20;34.72
44044;BME280;29709;52.396;16.796;2023-05-03T12:51:48;102813.27;;;17.00;33.64
44044;BME280;29709;52.396;16.796;2023-05-03T12:55:01;102808.61;;;16.83;34.45
44044;BME280;29709;52.396;16.796;2023-05-03T12:58:14;102802.39;;;16.53;34.08
44044;BME280;29709;52.396;16.796;2023-05-03T13:01:28;102799.63;;;16.53;34.07
44044;BME280;29709;52.396;16.796;2023-05-03T13:04:41;102802.98;;;16.74;34.90
44044;BME280;29709;52.396;16.796;2023-05-03T13:07:54;102795.42;;;16.85;34.07
44044;BME280;29709;52.396;16.796;2023-05-03T13:11:10;102797.74;;;16.89;36.05
44044;BME280;29709;52.396;16.796;2023-05-03T13:14:24;102800.73;;;16.60;35.66
44044;BME280;29709;52.396;16.796;2023-05-03T13:17:37;102791.34;;;16.71;35.62
44044;BME280;29709;52.396;16.796;2023-05-03T13:20:50;102789.97;;;16.75;35.05
44044;BME280;29709;52.396;16.796;2023-05-03T13:24:04;102762.34;;;16.56;34.55
44044;BME280;29709;52.396;16.796;2023-05-03T13:27:18;102786.93;;;16.86;34.49
44044;BME280;29709;52.396;16.796;2023-05-03T13:30:31;102793.92;;;16.90;34.62
44044;BME280;29709;52.396;16.796;2023-05-03T13:33:44;102788.26;;;17.26;35.58
44044;BME280;29709;52.396;16.796;2023-05-03T13:36:58;102782.13;;;17.48;34.02
44044;BME280;29709;52.396;16.796;2023-05-03T13:40:12;102776.26;;;17.51;33.19
44044;BME280;29709;52.396;16.796;2023-05-03T13:43:26;102777.30;;;17.58;35.10
44044;BME280;29709;52.396;16.796;2023-05-03T13:46:40;102773.96;;;17.73;33.53
44044;BME280;29709;52.396;16.796;2023-05-03T13:49:55;102769.13;;;17.91;33.64
44044;BME280;29709;52.396;16.796;2023-05-03T13:53:13;102771.98;;;18.07;34.43
44044;BME280;29709;52.396;16.796;2023-05-03T13:56:27;102775.30;;;18.19;33.99
44044;BME280;29709;52.396;16.796;2023-05-03T13:59:41;102770.12;;;18.24;33.71
44044;BME280;29709;52.396;16.796;2023-05-03T14:02:54;102759.33;;;18.29;33.58
44044;BME280;29709;52.396;16.796;2023-05-03T14:06:08;102756.20;;;18.40;33.32
44044;BME280;29709;52.396;16.796;2023-05-03T14:09:22;102757.44;;;18.62;33.39
44044;BME280;29709;52.396;16.796;2023-05-03T14:12:35;102754.69;;;18.87;33.23
44044;BME280;29709;52.396;16.796;2023-05-03T14:15:49;102757.98;;;18.82;32.53
44044;BME280;29709;52.396;16.796;2023-05-03T14:19:03;102751.72;;;18.88;32.75
44044;BME280;29709;52.396;16.796;2023-05-03T14:22:16;102757.12;;;18.90;32.66
44044;BME280;29709;52.396;16.796;2023-05-03T14:25:29;102748.06;;;18.88;32.61
44044;BME280;29709;52.396;16.796;2023-05-03T14:28:43;102743.18;;;18.90;32.55
44044;BME280;29709;52.396;16.796;2023-05-03T14:31:57;102749.63;;;18.98;32.24
44044;BME280;29709;52.396;16.796;2023-05-03T14:35:11;102739.34;;;18.91;32.17
44044;BME280;29709;52.396;16.796;2023-05-03T14:38:24;102744.92;;;18.74;31.96
44044;BME280;29709;52.396;16.796;2023-05-03T14:41:38;102745.64;;;18.77;32.42
44044;BME280;29709;52.396;16.796;2023-05-03T14:44:51;102740.21;;;18.75;32.32
44044;BME280;29709;52.396;16.796;2023-05-03T14:48:05;102740.93;;;18.77;32.37
44044;BME280;29709;52.396;16.796;2023-05-03T14:51:18;102733.58;;;19.00;32.91
44044;BME280;29709;52.396;16.796;2023-05-03T14:54:33;102734.64;;;18.99;31.97
44044;BME280;29709;52.396;16.796;2023-05-03T14:57:46;102742.31;;;18.97;32.43
44044;BME280;29709;52.396;16.796;2023-05-03T15:00:59;102746.84;;;18.90;32.33
44044;BME280;29709;52.396;16.796;2023-05-03T15:04:13;102742.82;;;18.85;30.40
44044;BME280;29709;52.396;16.796;2023-05-03T15:07:26;102737.46;;;18.67;31.48
44044;BME280;29709;52.396;16.796;2023-05-03T15:10:40;102736.18;;;18.53;31.58
44044;BME280;29709;52.396;16.796;2023-05-03T15:13:55;102734.12;;;18.47;32.54
44044;BME280;29709;52.396;16.796;2023-05-03T15:17:09;102738.27;;;18.43;32.08
44044;BME280;29709;52.396;16.796;2023-05-03T15:20:23;102728.71;;;18.54;33.08
44044;BME280;29709;52.396;16.796;2023-05-03T15:23:36;102729.93;;;18.59;32.86
44044;BME280;29709;52.396;16.796;2023-05-03T15:26:49;102738.45;;;18.50;32.22
44044;BME280;29709;52.396;16.796;2023-05-03T15:30:04;102730.98;;;18.58;32.69
44044;BME280;29709;52.396;16.796;2023-05-03T15:33:19;102724.05;;;18.70;33.29
44044;BME280;29709;52.396;16.796;2023-05-03T15:36:32;102737.43;;;18.75;32.50
44044;BME280;29709;52.396;16.796;2023-05-03T15:39:49;102730.48;;;18.71;32.48
44044;BME280;29709;52.396;16.796;2023-05-03T15:43:03;102729.06;;;18.51;31.99
44044;BME280;29709;52.396;16.796;2023-05-03T15:46:16;102738.78;;;18.30;31.45
44044;BME280;29709;52.396;16.796;2023-05-03T15:49:29;102738.88;;;17.88;31.71
44044;BME280;29709;52.396;16.796;2023-05-03T15:52:43;102725.39;;;17.67;32.36
44044;BME280;29709;52.396;16.796;2023-05-03T15:55:58;102736.70;;;17.66;32.89
44044;BME280;29709;52.396;16.796;2023-05-03T15:59:13;102738.60;;;17.65;34.11
44044;BME280;29709;52.396;16.796;2023-05-03T16:02:27;102729.82;;;17.44;34.18
44044;BME280;29709;52.396;16.796;2023-05-03T16:05:42;102732.08;;;17.48;33.59
44044;BME280;29709;52.396;16.796;2023-05-03T16:08:58;102735.30;;;17.62;33.83
44044;BME280;29709;52.396;16.796;2023-05-03T16:12:11;102734.55;;;17.51;33.50
44044;BME280;29709;52.396;16.796;2023-05-03T16:15:24;102729.14;;;17.50;34.28
44044;BME280;29709;52.396;16.796;2023-05-03T16:18:38;102727.52;;;17.39;33.98
44044;BME280;29709;52.396;16.796;2023-05-03T16:21:52;102730.06;;;17.24;33.77
44044;BME280;29709;52.396;16.796;2023-05-03T16:25:06;102729.54;;;17.21;34.28
44044;BME280;29709;52.396;16.796;2023-05-03T16:28:25;102728.11;;;17.17;35.04
44044;BME280;29709;52.396;16.796;2023-05-03T16:31:38;102731.86;;;17.08;35.72
44044;BME280;29709;52.396;16.796;2023-05-03T16:34:51;102729.54;;;16.95;35.67
44044;BME280;29709;52.396;16.796;2023-05-03T16:38:05;102733.13;;;16.87;35.38
44044;BME280;29709;52.396;16.796;2023-05-03T16:41:19;102724.89;;;16.78;35.35
44044;BME280;29709;52.396;16.796;2023-05-03T16:44:32;102726.16;;;16.65;34.75
44044;BME280;29709;52.396;16.796;2023-05-03T16:47:46;102720.07;;;16.62;36.04
44044;BME280;29709;52.396;16.796;2023-05-03T16:50:59;102713.98;;;16.58;35.92
44044;BME280;29709;52.396;16.796;2023-05-03T16:54:13;102721.91;;;16.53;35.83
44044;BME280;29709;52.396;16.796;2023-05-03T16:57:28;102723.90;;;16.43;36.02
44044;BME280;29709;52.396;16.796;2023-05-03T17:00:41;102715.36;;;16.36;35.91
44044;BME280;29709;52.396;16.796;2023-05-03T17:03:55;102722.73;;;16.28;35.86
44044;BME280;29709;52.396;16.796;2023-05-03T17:07:08;102717.97;;;16.20;35.87
44044;BME280;29709;52.396;16.796;2023-05-03T17:10:21;102710.68;;;16.19;36.33
44044;BME280;29709;52.396;16.796;2023-05-03T17:13:35;102718.84;;;16.21;36.25
44044;BME280;29709;52.396;16.796;2023-05-03T17:16:48;102717.48;;;16.25;35.82
44044;BME280;29709;52.396;16.796;2023-05-03T17:20:04;102720.13;;;16.26;36.34
44044;BME280;29709;52.396;16.796;2023-05-03T17:23:18;102722.90;;;16.26;35.94
44044;BME280;29709;52.396;16.796;2023-05-03T17:26:32;102720.58;;;16.22;36.13
44044;BME280;29709;52.396;16.796;2023-05-03T17:29:45;102720.20;;;16.16;36.70
44044;BME280;29709;52.396;16.796;2023-05-03T17:32:58;102722.18;;;16.06;36.56